Time;durP1;ratioP1;P1;durP2;ratioP2;P2;SDS_P1;SDS_P2;PMS_P1;PMS_P2;Temp;Humidity;BMP_temperature;BMP_pressure;BME280_temperature;BME280_humidity;BME280_pressure;Samples;Min_cycle;Max_cycle;Signal;HPM_P1;HPM_P2
2022/10/07 00:04:19;;;;;;;8.40;6.50;;;;;;;;;;13038094;22;20357;-87
2022/10/07 00:09:21;;;;;;;8.70;6.53;;;;;;;;;;13036102;22;20460;-87
2022/10/07 00:14:24;;;;;;;8.53;6.87;;;;;;;;;;13037196;22;20457;-91
2022/10/07 00:19:26;;;;;;;8.02;6.30;;;;;;;;;;13037633;22;20368;-90
2022/10/07 00:24:28;;;;;;;8.00;6.88;;;;;;;;;;13036887;22;20415;-90
2022/10/07 00:29:31;;;;;;;8.60;6.23;;;;;;;;;;13036675;22;20400;-90
2022/10/07 00:34:33;;;;;;;8.82;6.15;;;;;;;;;;13057261;22;20361;-89
2022/10/07 00:39:35;;;;;;;8.82;6.03;;;;;;;;;;13053874;22;20756;-91
2022/10/07 00:44:44;;;;;;;7.97;5.85;;;;;;;;;;13044484;22;20392;-90
2022/10/07 00:49:49;;;;;;;8.17;5.93;;;;;;;;;;13045862;22;20380;-90
2022/10/07 00:54:54;;;;;;;9.00;6.47;;;;;;;;;;13045561;22;20399;-91
2022/10/07 00:59:58;;;;;;;6.70;6.00;;;;;;;;;;13045870;22;20820;-91
2022/10/07 01:05:04;;;;;;;7.30;5.90;;;;;;;;;;13045698;22;20914;-90
2022/10/07 01:10:08;;;;;;;6.55;5.68;;;;;;;;;;13042969;22;20387;-89
2022/10/07 01:15:17;;;;;;;6.97;5.27;;;;;;;;;;13044299;22;20391;-90
2022/10/07 01:20:28;;;;;;;5.43;4.80;;;;;;;;;;13043827;22;20376;-90
2022/10/07 01:25:44;;;;;;;6.05;4.90;;;;;;;;;;13042878;22;20841;-91
2022/10/07 01:30:53;;;;;;;4.60;4.20;;;;;;;;;;13044248;22;20372;-90
2022/10/07 01:35:59;;;;;;;6.90;4.72;;;;;;;;;;13042087;22;20681;-90
2022/10/07 01:41:04;;;;;;;5.15;4.50;;;;;;;;;;13041776;22;20450;-90
2022/10/07 01:46:12;;;;;;;6.50;4.40;;;;;;;;;;13039208;22;20352;-90
2022/10/07 01:51:15;;;;;;;5.32;4.50;;;;;;;;;;13040011;22;20373;-90
2022/10/07 01:56:34;;;;;;;7.30;4.75;;;;;;;;;;13009967;22;20384;-90
2022/10/07 02:01:45;;;;;;;5.85;4.45;;;;;;;;;;13033561;22;20368;-91
2022/10/07 02:06:52;;;;;;;5.07;4.22;;;;;;;;;;13033089;22;20426;-90
2022/10/07 02:12:00;;;;;;;6.45;4.80;;;;;;;;;;13034746;22;20403;-90
2022/10/07 02:17:09;;;;;;;6.63;5.15;;;;;;;;;;13035362;22;20444;-91
2022/10/07 02:22:12;;;;;;;5.55;4.78;;;;;;;;;;13035645;22;20372;-90
2022/10/07 02:27:19;;;;;;;5.50;4.72;;;;;;;;;;13035410;22;20361;-91
2022/10/07 02:32:26;;;;;;;7.13;4.70;;;;;;;;;;13035967;22;20368;-91
2022/10/07 02:37:34;;;;;;;6.32;4.53;;;;;;;;;;13035491;22;20365;-90
2022/10/07 02:42:40;;;;;;;7.65;5.03;;;;;;;;;;13010612;22;20414;-90
2022/10/07 02:47:48;;;;;;;6.25;5.00;;;;;;;;;;13034966;22;20841;-90
2022/10/07 02:52:52;;;;;;;7.35;4.95;;;;;;;;;;13037609;22;20395;-90
2022/10/07 02:57:58;;;;;;;6.20;5.40;;;;;;;;;;13034775;22;20387;-91
2022/10/07 03:03:04;;;;;;;6.50;4.93;;;;;;;;;;13034828;22;20451;-91
2022/10/07 03:08:08;;;;;;;7.77;5.00;;;;;;;;;;13033250;22;20488;-90
2022/10/07 03:13:10;;;;;;;7.70;5.30;;;;;;;;;;13034257;22;20397;-91
2022/10/07 03:18:27;;;;;;;6.15;5.07;;;;;;;;;;13035501;22;20452;-90
2022/10/07 03:23:29;;;;;;;6.32;5.00;;;;;;;;;;13030924;22;20501;-90
2022/10/07 03:28:34;;;;;;;7.40;5.50;;;;;;;;;;13032185;22;20385;-90
2022/10/07 03:33:38;;;;;;;7.03;4.77;;;;;;;;;;13033118;22;20380;-90
2022/10/07 03:38:40;;;;;;;7.33;4.90;;;;;;;;;;13034343;22;20369;-90
2022/10/07 03:43:42;;;;;;;6.25;4.75;;;;;;;;;;13008240;22;20365;-91
2022/10/07 03:48:46;;;;;;;5.67;4.63;;;;;;;;;;13006643;22;20490;-89
2022/10/07 03:53:48;;;;;;;5.53;4.63;;;;;;;;;;13034620;22;20690;-90
2022/10/07 03:58:50;;;;;;;7.15;4.90;;;;;;;;;;13034183;22;21081;-90
2022/10/07 04:03:54;;;;;;;5.72;4.80;;;;;;;;;;13034264;22;20868;-90
2022/10/07 04:08:56;;;;;;;6.50;5.00;;;;;;;;;;13033067;22;20463;-90
2022/10/07 04:13:59;;;;;;;6.33;5.00;;;;;;;;;;13031690;22;20738;-90
2022/10/07 04:19:02;;;;;;;6.40;4.90;;;;;;;;;;13031225;22;20376;-90
2022/10/07 04:24:05;;;;;;;7.57;4.50;;;;;;;;;;13031818;22;20763;-90
2022/10/07 04:29:06;;;;;;;8.03;5.37;;;;;;;;;;13003383;22;20442;-91
2022/10/07 04:34:10;;;;;;;5.78;4.85;;;;;;;;;;13033262;22;20443;-90
2022/10/07 04:39:12;;;;;;;5.82;4.85;;;;;;;;;;13032137;22;20388;-90
2022/10/07 04:44:14;;;;;;;5.90;4.73;;;;;;;;;;13004388;22;20904;-90
2022/10/07 04:49:17;;;;;;;7.43;5.80;;;;;;;;;;13030100;22;20857;-90
2022/10/07 04:54:19;;;;;;;7.00;5.10;;;;;;;;;;13032065;22;20399;-91
2022/10/07 04:59:21;;;;;;;6.47;4.78;;;;;;;;;;13032746;22;20690;-90
2022/10/07 05:04:25;;;;;;;10.18;5.32;;;;;;;;;;13032384;22;20388;-90
2022/10/07 05:09:27;;;;;;;6.60;5.10;;;;;;;;;;13031095;22;20376;-90
2022/10/07 05:14:31;;;;;;;6.80;4.55;;;;;;;;;;13027589;22;20829;-91
2022/10/07 05:19:35;;;;;;;8.60;4.80;;;;;;;;;;13028818;22;20434;-90
2022/10/07 05:24:37;;;;;;;9.63;5.25;;;;;;;;;;13027839;22;20685;-90
2022/10/07 05:29:39;;;;;;;7.05;4.95;;;;;;;;;;13037358;22;20373;-90
2022/10/07 05:34:43;;;;;;;6.85;5.05;;;;;;;;;;13035127;22;20368;-90
2022/10/07 05:39:45;;;;;;;7.77;5.17;;;;;;;;;;13034371;22;20359;-90
2022/10/07 05:44:47;;;;;;;6.63;5.30;;;;;;;;;;13033665;22;21065;-90
2022/10/07 05:49:50;;;;;;;7.03;6.05;;;;;;;;;;13028533;22;20860;-88
2022/10/07 05:54:52;;;;;;;8.45;5.57;;;;;;;;;;13029853;22;20464;-89
2022/10/07 05:59:55;;;;;;;8.13;6.30;;;;;;;;;;13009307;22;20369;-88
2022/10/07 06:04:59;;;;;;;9.27;5.70;;;;;;;;;;13037497;22;20398;-89
2022/10/07 06:15:20;;;;;;;6.30;5.57;;;;;;;;;;13035328;22;20357;-89
2022/10/07 06:20:23;;;;;;;7.53;5.68;;;;;;;;;;13034322;22;20436;-89
2022/10/07 06:25:25;;;;;;;8.15;5.80;;;;;;;;;;13035356;22;20392;-88
2022/10/07 06:30:28;;;;;;;10.10;6.20;;;;;;;;;;13033706;22;20376;-88
2022/10/07 06:35:31;;;;;;;7.68;5.45;;;;;;;;;;13033104;22;20373;-89
2022/10/07 06:40:33;;;;;;;9.55;5.90;;;;;;;;;;13037081;22;20367;-89
2022/10/07 06:45:35;;;;;;;8.02;5.60;;;;;;;;;;13036592;22;20361;-88
2022/10/07 06:50:38;;;;;;;10.17;6.10;;;;;;;;;;13036833;22;20420;-88
2022/10/07 06:55:40;;;;;;;9.77;5.80;;;;;;;;;;13038105;22;20356;-88
2022/10/07 07:00:42;;;;;;;6.80;4.93;;;;;;;;;;13025688;22;20388;-89
2022/10/07 07:05:46;;;;;;;9.13;5.30;;;;;;;;;;13050546;22;20369;-88
2022/10/07 07:10:48;;;;;;;10.15;5.53;;;;;;;;;;13034502;22;20407;-88
2022/10/07 07:15:55;;;;;;;6.40;5.03;;;;;;;;;;13036885;22;20388;-89
2022/10/07 07:21:03;;;;;;;7.63;5.10;;;;;;;;;;13033141;22;20444;-87
2022/10/07 07:26:05;;;;;;;7.73;4.73;;;;;;;;;;13033973;22;20365;-88
2022/10/07 07:31:09;;;;;;;8.30;4.90;;;;;;;;;;13035080;22;20405;-88
2022/10/07 07:36:15;;;;;;;8.83;4.70;;;;;;;;;;13034300;22;20353;-87
2022/10/07 07:41:17;;;;;;;6.35;4.65;;;;;;;;;;13031547;22;20373;-86
2022/10/07 07:46:20;;;;;;;6.77;4.43;;;;;;;;;;13005248;22;20384;-86
2022/10/07 07:51:24;;;;;;;7.55;4.72;;;;;;;;;;13030941;22;20377;-87
2022/10/07 07:56:30;;;;;;;8.05;4.90;;;;;;;;;;13033340;22;20389;-87
2022/10/07 08:01:34;;;;;;;5.67;4.77;;;;;;;;;;13032837;22;20380;-88
2022/10/07 08:06:37;;;;;;;8.27;4.43;;;;;;;;;;13031760;22;20446;-88
2022/10/07 08:11:40;;;;;;;7.40;4.43;;;;;;;;;;13031365;22;20380;-86
2022/10/07 08:16:43;;;;;;;5.30;4.00;;;;;;;;;;13034908;22;20994;-88
2022/10/07 08:21:47;;;;;;;5.93;3.73;;;;;;;;;;13035302;22;20361;-87
2022/10/07 08:26:49;;;;;;;7.75;3.60;;;;;;;;;;13034226;22;20450;-87
2022/10/07 08:31:51;;;;;;;6.57;3.60;;;;;;;;;;13035125;22;20385;-89
2022/10/07 08:36:55;;;;;;;8.13;3.20;;;;;;;;;;13031914;22;20773;-88
2022/10/07 08:42:07;;;;;;;5.78;3.40;;;;;;;;;;13027460;22;20369;-87
2022/10/07 08:47:20;;;;;;;3.20;2.67;;;;;;;;;;13026822;22;20365;-87
2022/10/07 08:52:31;;;;;;;4.05;2.22;;;;;;;;;;13032216;22;20373;-89
2022/10/07 08:57:45;;;;;;;6.25;2.15;;;;;;;;;;13030895;22;20728;-88
2022/10/07 09:03:05;;;;;;;3.25;2.13;;;;;;;;;;13030495;22;20360;-88
2022/10/07 09:08:14;;;;;;;4.85;2.17;;;;;;;;;;13035228;22;20418;-87
2022/10/07 09:13:20;;;;;;;5.75;2.42;;;;;;;;;;13034115;22;20384;-88
2022/10/07 09:18:25;;;;;;;3.45;2.05;;;;;;;;;;13032557;22;20404;-89
2022/10/07 09:23:31;;;;;;;4.68;2.17;;;;;;;;;;13034458;22;21128;-88
2022/10/07 09:28:34;;;;;;;4.55;2.00;;;;;;;;;;13034053;22;20399;-87
2022/10/07 09:33:41;;;;;;;3.60;2.10;;;;;;;;;;13030506;22;20364;-88
2022/10/07 09:38:46;;;;;;;5.65;2.00;;;;;;;;;;13031694;22;21064;-87
2022/10/07 09:44:01;;;;;;;4.47;1.80;;;;;;;;;;13032408;22;21028;-87
2022/10/07 09:49:06;;;;;;;2.75;1.90;;;;;;;;;;13032642;22;20427;-87
2022/10/07 09:54:19;;;;;;;5.50;2.10;;;;;;;;;;13032296;22;20388;-88
2022/10/07 09:59:23;;;;;;;5.27;2.13;;;;;;;;;;13030973;22;20447;-90
2022/10/07 10:04:31;;;;;;;5.63;1.83;;;;;;;;;;13032406;22;20451;-88
2022/10/07 10:09:34;;;;;;;4.32;1.95;;;;;;;;;;13032484;22;20388;-88
2022/10/07 10:14:43;;;;;;;7.82;2.10;;;;;;;;;;13030607;22;20403;-88
2022/10/07 10:19:45;;;;;;;6.13;1.90;;;;;;;;;;13030836;22;20360;-90
2022/10/07 10:30:13;;;;;;;3.58;1.90;;;;;;;;;;13036046;22;20381;-89
2022/10/07 10:35:22;;;;;;;4.00;1.80;;;;;;;;;;13034821;22;20396;-88
2022/10/07 10:40:32;;;;;;;4.18;1.88;;;;;;;;;;13031233;22;20385;-88
2022/10/07 10:45:39;;;;;;;3.95;1.70;;;;;;;;;;13030073;22;20365;-87
2022/10/07 10:50:52;;;;;;;4.20;1.90;;;;;;;;;;13030694;22;20412;-89
2022/10/07 10:56:09;;;;;;;5.40;2.00;;;;;;;;;;13033574;22;20447;-89
2022/10/07 11:01:22;;;;;;;7.90;2.17;;;;;;;;;;13034284;22;20392;-89
2022/10/07 11:06:27;;;;;;;5.53;1.97;;;;;;;;;;13030090;22;20837;-90
2022/10/07 11:11:30;;;;;;;5.10;1.70;;;;;;;;;;13036625;22;20421;-91
2022/10/07 11:16:39;;;;;;;3.67;1.73;;;;;;;;;;13037714;22;20399;-89
2022/10/07 11:21:45;;;;;;;5.82;1.88;;;;;;;;;;13034530;22;20381;-88
2022/10/07 11:26:51;;;;;;;5.75;1.85;;;;;;;;;;13033736;22;20436;-89
2022/10/07 11:31:58;;;;;;;5.25;1.95;;;;;;;;;;13034809;22;20461;-89
2022/10/07 11:37:05;;;;;;;4.72;1.92;;;;;;;;;;13022721;22;20372;-89
2022/10/07 11:42:15;;;;;;;4.87;1.80;;;;;;;;;;13024059;22;20887;-88
2022/10/07 11:47:22;;;;;;;4.53;1.70;;;;;;;;;;13025850;22;20457;-89
2022/10/07 11:52:27;;;;;;;3.00;1.70;;;;;;;;;;13026504;22;20456;-89
2022/10/07 11:57:32;;;;;;;3.30;2.00;;;;;;;;;;13024359;22;21061;-89
2022/10/07 12:02:43;;;;;;;3.80;1.90;;;;;;;;;;13024889;22;20467;-88
2022/10/07 12:08:00;;;;;;;4.87;1.50;;;;;;;;;;13025738;22;20436;-88
2022/10/07 12:13:40;;;;;;;3.97;1.88;;;;;;;;;;13029358;22;20468;-89
2022/10/07 12:19:15;;;;;;;5.30;1.87;;;;;;;;;;13027257;22;20384;-89
2022/10/07 12:24:17;;;;;;;7.22;2.17;;;;;;;;;;13027065;22;20407;-88
2022/10/07 12:29:32;;;;;;;4.30;1.70;;;;;;;;;;13028592;22;20400;-89
2022/10/07 12:34:40;;;;;;;6.30;2.00;;;;;;;;;;13029464;22;20377;-90
2022/10/07 12:39:42;;;;;;;7.70;2.43;;;;;;;;;;13030068;22;20364;-89
2022/10/07 12:44:50;;;;;;;3.40;1.80;;;;;;;;;;13032367;22;20655;-89
2022/10/07 12:49:57;;;;;;;5.22;2.00;;;;;;;;;;13030922;22;20372;-89
2022/10/07 12:55:02;;;;;;;2.97;1.83;;;;;;;;;;13035952;22;20401;-88
2022/10/07 13:00:07;;;;;;;7.03;2.35;;;;;;;;;;13032210;22;20352;-88
2022/10/07 13:05:47;;;;;;;4.95;1.90;;;;;;;;;;13026586;22;20875;-88
2022/10/07 13:11:18;;;;;;;4.70;2.10;;;;;;;;;;13031886;22;20498;-89
2022/10/07 13:16:30;;;;;;;4.22;1.80;;;;;;;;;;13031732;22;20364;-89
2022/10/07 13:21:36;;;;;;;5.13;1.90;;;;;;;;;;13029279;22;20929;-90
2022/10/07 13:26:44;;;;;;;6.53;1.90;;;;;;;;;;13030078;22;20407;-89
2022/10/07 13:32:02;;;;;;;6.60;1.80;;;;;;;;;;13029817;22;20457;-90
2022/10/07 13:37:26;;;;;;;3.70;1.70;;;;;;;;;;13028497;22;20393;-88
2022/10/07 13:42:29;;;;;;;4.60;1.50;;;;;;;;;;13031583;22;20377;-88
2022/10/07 13:47:35;;;;;;;3.63;1.70;;;;;;;;;;13027940;22;20778;-89
2022/10/07 13:52:39;;;;;;;6.53;2.03;;;;;;;;;;13030819;22;20462;-90
2022/10/07 13:57:43;;;;;;;3.20;1.80;;;;;;;;;;13029378;22;20434;-88
2022/10/07 14:02:48;;;;;;;4.30;1.80;;;;;;;;;;13031524;22;20431;-87
2022/10/07 14:07:53;;;;;;;4.43;2.07;;;;;;;;;;13032503;22;20853;-88
2022/10/07 14:12:58;;;;;;;4.32;1.88;;;;;;;;;;13031718;22;20385;-88
2022/10/07 14:18:07;;;;;;;3.95;1.80;;;;;;;;;;13027576;22;20737;-82
2022/10/07 14:23:20;;;;;;;7.83;2.17;;;;;;;;;;13028228;22;20468;-90
2022/10/07 14:28:29;;;;;;;5.30;2.20;;;;;;;;;;13029533;22;20428;-89
2022/10/07 14:39:22;;;;;;;5.20;1.70;;;;;;;;;;13030298;22;20595;-89
2022/10/07 14:44:24;;;;;;;4.88;1.90;;;;;;;;;;13025489;22;20468;-89
2022/10/07 14:49:28;;;;;;;3.42;1.67;;;;;;;;;;13029105;22;20732;-91
2022/10/07 14:54:30;;;;;;;5.25;1.85;;;;;;;;;;13029907;22;20379;-91
2022/10/07 14:59:32;;;;;;;4.07;1.85;;;;;;;;;;13027600;22;20467;-91
2022/10/07 15:04:36;;;;;;;4.00;1.70;;;;;;;;;;13028520;22;20438;-91
2022/10/07 15:09:38;;;;;;;5.97;1.80;;;;;;;;;;13027447;22;20448;-89
2022/10/07 15:14:41;;;;;;;5.10;1.70;;;;;;;;;;13027881;22;20357;-89
2022/10/07 15:19:44;;;;;;;5.53;1.80;;;;;;;;;;13024709;22;20357;-90
2022/10/07 15:24:46;;;;;;;3.92;1.70;;;;;;;;;;13029101;22;20451;-89
2022/10/07 15:29:52;;;;;;;8.18;2.28;;;;;;;;;;13030236;22;20369;-90
2022/10/07 15:34:57;;;;;;;7.27;2.30;;;;;;;;;;13031167;22;20407;-89
2022/10/07 15:39:59;;;;;;;5.10;1.90;;;;;;;;;;13032710;22;20372;-89
2022/10/07 15:45:01;;;;;;;4.32;1.73;;;;;;;;;;13025424;22;20923;-91
2022/10/07 15:50:05;;;;;;;4.72;1.70;;;;;;;;;;13028245;22;20864;-89
2022/10/07 15:55:08;;;;;;;6.88;2.20;;;;;;;;;;13030495;22;20360;-90
2022/10/07 16:00:11;;;;;;;7.78;2.50;;;;;;;;;;13029455;22;20381;-89
2022/10/07 16:05:15;;;;;;;9.00;2.50;;;;;;;;;;13029048;22;20399;-90
2022/10/07 16:10:17;;;;;;;5.70;1.90;;;;;;;;;;13033113;22;20353;-90
2022/10/07 16:15:19;;;;;;;6.78;2.70;;;;;;;;;;13033977;22;20365;-89
2022/10/07 16:20:40;;;;;;;5.82;2.42;;;;;;;;;;13026946;22;20442;-89
2022/10/07 16:25:51;;;;;;;7.17;4.17;;;;;;;;;;13030792;22;20362;-90
2022/10/07 16:30:53;;;;;;;6.97;2.40;;;;;;;;;;13031966;22;20752;-90
2022/10/07 16:36:25;;;;;;;11.98;3.55;;;;;;;;;;13035906;22;20676;-90
2022/10/07 16:41:35;;;;;;;6.40;2.50;;;;;;;;;;13033216;22;20671;-89
2022/10/07 16:46:37;;;;;;;8.18;2.55;;;;;;;;;;13033508;22;20422;-89
2022/10/07 16:51:41;;;;;;;14.10;5.75;;;;;;;;;;13033845;22;20376;-89
2022/10/07 16:56:45;;;;;;;10.02;5.47;;;;;;;;;;13034000;22;20764;-89
2022/10/07 17:01:48;;;;;;;12.33;3.80;;;;;;;;;;13023755;22;20482;-89
2022/10/07 17:06:51;;;;;;;10.00;3.10;;;;;;;;;;13027404;22;20365;-90
2022/10/07 17:11:55;;;;;;;9.00;3.10;;;;;;;;;;13027167;22;20369;-90
2022/10/07 17:16:57;;;;;;;8.37;3.03;;;;;;;;;;13029321;22;20384;-89
2022/10/07 17:22:04;;;;;;;6.87;3.00;;;;;;;;;;13029128;22;20415;-88
2022/10/07 17:27:07;;;;;;;13.80;3.25;;;;;;;;;;13034114;22;20387;-89
2022/10/07 17:32:10;;;;;;;6.90;2.60;;;;;;;;;;13033608;22;20764;-89
2022/10/07 17:37:13;;;;;;;5.33;2.70;;;;;;;;;;13031058;22;20376;-90
2022/10/07 17:42:15;;;;;;;5.75;2.60;;;;;;;;;;13004466;22;20380;-88
2022/10/07 17:47:17;;;;;;;8.07;2.83;;;;;;;;;;13033029;22;20377;-89
2022/10/07 17:52:21;;;;;;;10.35;3.40;;;;;;;;;;13030558;22;20732;-87
2022/10/07 17:57:23;;;;;;;6.55;3.50;;;;;;;;;;13032828;22;20881;-88
2022/10/07 18:02:27;;;;;;;9.80;4.10;;;;;;;;;;13033715;22;20464;-89
2022/10/07 18:07:30;;;;;;;10.10;3.42;;;;;;;;;;13033520;22;20395;-90
2022/10/07 18:17:56;;;;;;;10.47;5.20;;;;;;;;;;13032935;22;20345;-88
2022/10/07 18:22:59;;;;;;;9.83;5.10;;;;;;;;;;13028344;22;20694;-89
2022/10/07 18:28:01;;;;;;;11.50;5.10;;;;;;;;;;13030772;22;20373;-90
2022/10/07 18:33:03;;;;;;;9.77;5.10;;;;;;;;;;13030817;22;20369;-89
2022/10/07 18:38:06;;;;;;;9.53;4.90;;;;;;;;;;13033853;22;20365;-89
2022/10/07 18:43:09;;;;;;;7.15;4.72;;;;;;;;;;13029905;22;20388;-90
2022/10/07 18:48:10;;;;;;;9.10;5.27;;;;;;;;;;13032715;22;20369;-87
2022/10/07 18:53:14;;;;;;;12.40;6.10;;;;;;;;;;13051346;22;20384;-89
2022/10/07 18:58:16;;;;;;;9.90;6.43;;;;;;;;;;13054593;22;20353;-88
2022/10/07 19:03:18;;;;;;;10.82;7.00;;;;;;;;;;13036312;22;20412;-89
2022/10/07 19:08:21;;;;;;;13.07;7.68;;;;;;;;;;13035217;22;20693;-89
2022/10/07 19:18:42;;;;;;;16.42;8.38;;;;;;;;;;13034960;22;20357;-89
2022/10/07 19:23:47;;;;;;;13.52;7.40;;;;;;;;;;13037296;22;20409;-90
2022/10/07 19:28:51;;;;;;;12.45;8.70;;;;;;;;;;13036223;22;20361;-89
2022/10/07 19:33:56;;;;;;;13.52;9.25;;;;;;;;;;13035514;22;20365;-88
2022/10/07 19:38:59;;;;;;;14.50;9.90;;;;;;;;;;13034424;22;20436;-90
2022/10/07 19:44:01;;;;;;;15.48;10.77;;;;;;;;;;13030993;22;20409;-87
2022/10/07 19:49:04;;;;;;;15.98;11.23;;;;;;;;;;13005986;22;20371;-87
2022/10/07 19:54:09;;;;;;;16.87;11.43;;;;;;;;;;13003516;22;20443;-87
2022/10/07 19:59:13;;;;;;;15.98;11.30;;;;;;;;;;13029172;22;20380;-87
2022/10/07 20:04:17;;;;;;;16.60;11.03;;;;;;;;;;13029867;22;20381;-90
2022/10/07 20:09:21;;;;;;;15.02;11.38;;;;;;;;;;13030943;22;20383;-90
2022/10/07 20:14:25;;;;;;;15.25;11.60;;;;;;;;;;13028176;22;22573;-90
2022/10/07 20:19:27;;;;;;;17.50;12.00;;;;;;;;;;13030369;22;20849;-89
2022/10/07 20:24:30;;;;;;;17.83;11.10;;;;;;;;;;13030294;22;20825;-89
2022/10/07 20:29:55;;;;;;;17.65;11.25;;;;;;;;;;13030173;22;20377;-91
2022/10/07 20:34:54;;;;;;;16.50;11.70;;;;;;;;;;13029735;22;20369;-90
2022/10/07 20:45:17;;;;;;;17.05;10.68;;;;;;;;;;13031056;22;20732;-90
2022/10/07 20:50:19;;;;;;;20.83;11.47;;;;;;;;;;13030802;22;20365;-90
2022/10/07 20:55:23;;;;;;;20.50;11.27;;;;;;;;;;13030942;22;20399;-88
2022/10/07 21:00:24;;;;;;;16.00;11.27;;;;;;;;;;13032923;22;20361;-90
2022/10/07 21:05:28;;;;;;;14.82;11.60;;;;;;;;;;13034685;22;20385;-90
2022/10/07 21:10:32;;;;;;;14.07;10.80;;;;;;;;;;13034671;22;20396;-89
2022/10/07 21:15:37;;;;;;;16.67;12.50;;;;;;;;;;13031864;22;20360;-89
2022/10/07 21:20:49;;;;;;;15.93;10.52;;;;;;;;;;13032208;22;20364;-89
2022/10/07 21:25:53;;;;;;;15.50;11.27;;;;;;;;;;13034703;22;20435;-89
2022/10/07 21:30:58;;;;;;;18.60;11.13;;;;;;;;;;13031796;22;20444;-87
2022/10/07 21:36:00;;;;;;;13.63;10.93;;;;;;;;;;13032080;22;21036;-90
2022/10/07 21:41:11;;;;;;;15.70;11.57;;;;;;;;;;13032657;22;20377;-90
2022/10/07 21:46:19;;;;;;;13.48;11.48;;;;;;;;;;13034405;22;20404;-89
2022/10/07 21:51:21;;;;;;;16.00;11.67;;;;;;;;;;13033846;22;20361;-89
2022/10/07 21:56:26;;;;;;;16.45;11.32;;;;;;;;;;13036801;22;20841;-89
2022/10/07 22:01:28;;;;;;;14.60;10.02;;;;;;;;;;13037135;22;20376;-89
2022/10/07 22:12:04;;;;;;;12.57;8.80;;;;;;;;;;12915629;22;20357;-91
2022/10/07 22:17:05;;;;;;;12.32;9.13;;;;;;;;;;13035509;22;20385;-90
2022/10/07 22:22:07;;;;;;;15.23;9.52;;;;;;;;;;13034346;22;20415;-90
2022/10/07 22:27:11;;;;;;;12.55;9.07;;;;;;;;;;13035942;22;20415;-91
2022/10/07 22:32:12;;;;;;;11.32;8.80;;;;;;;;;;13034159;22;20396;-89
2022/10/07 22:37:14;;;;;;;15.02;8.65;;;;;;;;;;13034107;22;20396;-91
2022/10/07 22:42:18;;;;;;;12.15;7.70;;;;;;;;;;13034044;22;20373;-89
2022/10/07 22:47:20;;;;;;;12.20;7.22;;;;;;;;;;13029472;22;20368;-91
2022/10/07 22:52:22;;;;;;;9.93;7.07;;;;;;;;;;13033296;22;20426;-91
2022/10/07 22:57:26;;;;;;;13.43;9.50;;;;;;;;;;13034705;22;20375;-91
2022/10/07 23:02:28;;;;;;;11.45;10.13;;;;;;;;;;13034108;22;20372;-91
2022/10/07 23:07:31;;;;;;;16.23;9.95;;;;;;;;;;13036564;22;20365;-91
2022/10/07 23:12:34;;;;;;;13.80;9.70;;;;;;;;;;13037267;22;20365;-89
2022/10/07 23:17:36;;;;;;;13.15;10.50;;;;;;;;;;13037442;22;20360;-90
2022/10/07 23:22:39;;;;;;;16.00;10.87;;;;;;;;;;13037312;22;20867;-90
2022/10/07 23:27:42;;;;;;;12.73;10.13;;;;;;;;;;13037386;22;20372;-90
2022/10/07 23:32:45;;;;;;;14.60;10.70;;;;;;;;;;13038118;22;20361;-91
2022/10/07 23:37:47;;;;;;;15.75;10.40;;;;;;;;;;13038033;22;20364;-91
2022/10/07 23:42:50;;;;;;;13.25;10.40;;;;;;;;;;13035931;22;20849;-89
2022/10/07 23:47:52;;;;;;;13.57;9.88;;;;;;;;;;13037390;22;20361;-91
2022/10/07 23:52:54;;;;;;;14.60;10.40;;;;;;;;;;13039212;22;20361;-91
2022/10/07 23:57:57;;;;;;;16.15;10.40;;;;;;;;;;13038470;22;20365;-90
